Time;durP1;ratioP1;P1;durP2;ratioP2;P2;SDS_P1;SDS_P2;PMS_P1;PMS_P2;Temp;Humidity;BMP_temperature;BMP_pressure;BME280_temperature;BME280_humidity;BME280_pressure;Samples;Min_cycle;Max_cycle;Signal;HPM_P1;HPM_P2
2022/01/07 00:01:59;;;;;;;7.90;2.00;;;;;;;;;;5026424;28;20165;-57
2022/01/07 00:04:27;;;;;;;9.30;2.30;;;;;;;;;;5024929;28;20056;-57
2022/01/07 00:06:54;;;;;;;13.10;3.25;;;;;;;;;;5028868;28;20570;-56
2022/01/07 00:09:21;;;;;;;9.05;2.03;;;;;;;;;;5024617;28;20323;-59
2022/01/07 00:11:47;;;;;;;7.88;2.53;;;;;;;;;;5028266;28;20056;-58
2022/01/07 00:14:14;;;;;;;13.32;1.92;;;;;;;;;;5053640;28;20412;-60
2022/01/07 00:16:40;;;;;;;8.07;1.95;;;;;;;;;;5044382;28;20053;-59
2022/01/07 00:19:06;;;;;;;7.82;2.08;;;;;;;;;;5032687;28;20143;-58
2022/01/07 00:21:35;;;;;;;6.57;2.15;;;;;;;;;;5028573;28;20110;-57
2022/01/07 00:24:01;;;;;;;10.13;2.53;;;;;;;;;;5029027;28;20172;-57
2022/01/07 00:26:28;;;;;;;7.55;2.10;;;;;;;;;;5044052;28;20049;-57
2022/01/07 00:28:54;;;;;;;9.68;3.30;;;;;;;;;;5039270;28;20077;-57
2022/01/07 00:31:21;;;;;;;14.23;2.70;;;;;;;;;;5044572;28;20072;-58
2022/01/07 00:33:47;;;;;;;14.30;2.75;;;;;;;;;;5057351;28;20098;-58
2022/01/07 00:36:14;;;;;;;5.25;2.22;;;;;;;;;;5030075;28;20053;-54
2022/01/07 00:38:42;;;;;;;7.72;2.67;;;;;;;;;;5025697;28;20052;-55
2022/01/07 00:41:09;;;;;;;10.45;2.35;;;;;;;;;;5027425;28;20102;-54
2022/01/07 00:43:35;;;;;;;4.25;1.52;;;;;;;;;;5027499;28;20051;-52
2022/01/07 00:46:02;;;;;;;8.38;2.53;;;;;;;;;;5024841;28;20057;-54
2022/01/07 00:48:29;;;;;;;7.50;2.20;;;;;;;;;;5030630;28;20055;-57
2022/01/07 00:50:55;;;;;;;9.63;1.92;;;;;;;;;;5025828;28;20064;-53
2022/01/07 00:53:22;;;;;;;16.30;2.25;;;;;;;;;;5030714;28;20060;-57
2022/01/07 00:55:50;;;;;;;6.35;1.80;;;;;;;;;;5037232;28;20049;-56
2022/01/07 00:58:17;;;;;;;6.25;2.00;;;;;;;;;;5047147;28;20049;-61
2022/01/07 01:00:44;;;;;;;7.20;2.30;;;;;;;;;;5035368;28;20053;-60
2022/01/07 01:03:10;;;;;;;11.27;2.13;;;;;;;;;;4989564;28;1112971;-55
2022/01/07 01:05:37;;;;;;;10.35;2.30;;;;;;;;;;5024515;28;20107;-57
2022/01/07 01:08:05;;;;;;;11.77;2.30;;;;;;;;;;5028189;28;20041;-60
2022/01/07 01:10:32;;;;;;;7.20;2.10;;;;;;;;;;5024956;28;20046;-59
2022/01/07 01:13:00;;;;;;;11.40;2.08;;;;;;;;;;5028572;28;20050;-56
2022/01/07 01:15:27;;;;;;;6.88;1.75;;;;;;;;;;5024234;28;20064;-57
2022/01/07 01:17:54;;;;;;;6.97;2.10;;;;;;;;;;5028391;28;20080;-60
2022/01/07 01:20:21;;;;;;;8.52;2.35;;;;;;;;;;5024073;28;20057;-61
2022/01/07 01:22:48;;;;;;;6.50;1.77;;;;;;;;;;5028169;28;20060;-59
2022/01/07 01:25:15;;;;;;;11.90;2.25;;;;;;;;;;5028469;28;20065;-55
2022/01/07 01:27:44;;;;;;;6.97;2.38;;;;;;;;;;5024128;28;20115;-58
2022/01/07 01:30:13;;;;;;;6.65;2.40;;;;;;;;;;5028780;28;20057;-57
2022/01/07 01:32:40;;;;;;;8.65;2.70;;;;;;;;;;5022723;28;20049;-56
2022/01/07 01:35:07;;;;;;;7.85;2.38;;;;;;;;;;5008243;28;20137;-54
2022/01/07 01:37:34;;;;;;;11.15;3.38;;;;;;;;;;5024137;28;20100;-58
2022/01/07 01:40:00;;;;;;;6.75;2.85;;;;;;;;;;5027741;28;20077;-51
2022/01/07 01:42:27;;;;;;;11.75;2.60;;;;;;;;;;5024520;28;20077;-57
2022/01/07 01:44:55;;;;;;;12.25;2.97;;;;;;;;;;5011734;28;20060;-57
2022/01/07 01:47:23;;;;;;;8.77;2.60;;;;;;;;;;5022501;28;20084;-57
2022/01/07 01:49:50;;;;;;;6.47;1.60;;;;;;;;;;5044161;28;20144;-56
2022/01/07 01:52:16;;;;;;;4.97;2.25;;;;;;;;;;5024558;28;20308;-56
2022/01/07 01:54:44;;;;;;;11.63;2.85;;;;;;;;;;5027050;28;20156;-57
2022/01/07 01:57:10;;;;;;;11.63;2.95;;;;;;;;;;5023834;28;20050;-57
2022/01/07 01:59:38;;;;;;;10.90;2.72;;;;;;;;;;5028201;28;20061;-53
2022/01/07 02:02:05;;;;;;;9.52;2.78;;;;;;;;;;5027818;28;20065;-56
2022/01/07 02:04:33;;;;;;;5.75;1.88;;;;;;;;;;5066213;28;20057;-55
2022/01/07 02:07:00;;;;;;;7.40;1.85;;;;;;;;;;5045418;28;20060;-54
2022/01/07 02:09:34;;;;;;;9.02;1.95;;;;;;;;;;5045164;28;20106;-56
2022/01/07 02:12:00;;;;;;;9.40;1.92;;;;;;;;;;5063900;28;20048;-56
2022/01/07 02:14:28;;;;;;;6.93;1.88;;;;;;;;;;5042940;28;20118;-54
2022/01/07 02:16:54;;;;;;;11.93;2.33;;;;;;;;;;5063805;28;20057;-55
2022/01/07 02:19:21;;;;;;;8.50;2.03;;;;;;;;;;5042134;28;20113;-53
2022/01/07 02:21:49;;;;;;;7.38;2.13;;;;;;;;;;5063798;28;20053;-53
2022/01/07 02:24:15;;;;;;;4.93;1.80;;;;;;;;;;5042437;28;20053;-52
2022/01/07 02:26:42;;;;;;;6.53;2.00;;;;;;;;;;5046907;28;20056;-57
2022/01/07 02:29:08;;;;;;;5.75;1.45;;;;;;;;;;5058940;28;20156;-56
2022/01/07 02:31:35;;;;;;;11.82;1.98;;;;;;;;;;5047400;28;20049;-52
2022/01/07 02:34:01;;;;;;;8.45;1.77;;;;;;;;;;5043165;28;20080;-56
2022/01/07 02:36:28;;;;;;;6.43;2.00;;;;;;;;;;5046537;28;20136;-59
2022/01/07 02:38:56;;;;;;;3.25;1.48;;;;;;;;;;5036792;28;20080;-60
2022/01/07 02:41:23;;;;;;;6.25;1.65;;;;;;;;;;5027051;28;20053;-59
2022/01/07 02:43:50;;;;;;;2.65;1.58;;;;;;;;;;5026391;28;20057;-58
2022/01/07 02:46:16;;;;;;;9.20;1.90;;;;;;;;;;5062677;28;20358;-59
2022/01/07 02:48:43;;;;;;;3.13;1.40;;;;;;;;;;5022782;28;20058;-60
2022/01/07 02:51:09;;;;;;;10.63;1.83;;;;;;;;;;5026184;28;20069;-56
2022/01/07 02:53:36;;;;;;;7.05;1.40;;;;;;;;;;5026970;28;20054;-53
2022/01/07 02:56:04;;;;;;;9.45;1.63;;;;;;;;;;5042106;28;20076;-56
2022/01/07 02:58:31;;;;;;;2.30;0.80;;;;;;;;;;5047120;28;20063;-54
2022/01/07 03:00:58;;;;;;;3.90;1.33;;;;;;;;;;5023753;28;20417;-53
2022/01/07 03:03:25;;;;;;;4.90;1.60;;;;;;;;;;5025747;28;20053;-51
2022/01/07 03:05:51;;;;;;;4.10;1.30;;;;;;;;;;5021547;28;20045;-57
2022/01/07 03:08:18;;;;;;;6.90;1.60;;;;;;;;;;5025729;28;20115;-57
2022/01/07 03:10:44;;;;;;;7.05;1.48;;;;;;;;;;5022225;28;20049;-56
2022/01/07 03:13:12;;;;;;;4.43;1.60;;;;;;;;;;5026292;28;20135;-57
2022/01/07 03:15:39;;;;;;;5.65;1.65;;;;;;;;;;5022423;28;20041;-52
2022/01/07 03:18:06;;;;;;;7.40;1.88;;;;;;;;;;5026126;28;20141;-57
2022/01/07 03:20:38;;;;;;;6.53;1.63;;;;;;;;;;5022805;28;20479;-55
2022/01/07 03:23:05;;;;;;;6.43;1.35;;;;;;;;;;5026956;28;20071;-55
2022/01/07 03:25:32;;;;;;;5.40;1.30;;;;;;;;;;5023954;28;20045;-60
2022/01/07 03:28:01;;;;;;;8.75;1.60;;;;;;;;;;5027891;28;20057;-57
2022/01/07 03:30:27;;;;;;;;;;;;;;;;;;5023220;28;20057;-55
2022/01/07 03:32:55;;;;;;;4.75;1.60;;;;;;;;;;5026492;28;19924;-58
2022/01/07 03:35:21;;;;;;;3.25;1.40;;;;;;;;;;5026189;28;20107;-57
2022/01/07 03:37:49;;;;;;;1.77;0.98;;;;;;;;;;5021589;28;20053;-57
2022/01/07 03:40:16;;;;;;;8.13;1.90;;;;;;;;;;5025374;28;20050;-53
2022/01/07 03:42:44;;;;;;;5.22;1.27;;;;;;;;;;5021815;28;20042;-53
2022/01/07 03:45:11;;;;;;;3.53;1.40;;;;;;;;;;5026087;28;20049;-59
2022/01/07 03:47:37;;;;;;;5.95;1.83;;;;;;;;;;5021408;28;20061;-57
2022/01/07 03:50:07;;;;;;;6.30;1.38;;;;;;;;;;5024910;28;20053;-60
2022/01/07 03:52:33;;;;;;;5.50;1.38;;;;;;;;;;5021759;28;20049;-54
2022/01/07 03:55:00;;;;;;;3.30;1.50;;;;;;;;;;5024656;28;20148;-56
2022/01/07 03:57:26;;;;;;;6.13;1.45;;;;;;;;;;5021595;28;20057;-57
2022/01/07 03:59:54;;;;;;;6.40;1.65;;;;;;;;;;5024922;28;20053;-54
2022/01/07 04:02:21;;;;;;;5.03;1.45;;;;;;;;;;5021901;28;20115;-54
2022/01/07 04:04:47;;;;;;;4.43;1.30;;;;;;;;;;5025456;28;20118;-55
2022/01/07 04:07:15;;;;;;;3.42;1.23;;;;;;;;;;5021257;28;20640;-52
2022/01/07 04:09:41;;;;;;;4.83;1.20;;;;;;;;;;5025323;28;20105;-60
2022/01/07 04:12:08;;;;;;;4.47;1.50;;;;;;;;;;5021437;28;20077;-60
2022/01/07 04:14:35;;;;;;;3.92;1.50;;;;;;;;;;5045113;28;20053;-60
2022/01/07 04:17:02;;;;;;;4.57;1.60;;;;;;;;;;5026710;28;20056;-56
2022/01/07 04:19:28;;;;;;;4.13;1.67;;;;;;;;;;5022922;28;20258;-57
2022/01/07 04:21:55;;;;;;;4.72;1.80;;;;;;;;;;5025515;28;20149;-53
2022/01/07 04:24:22;;;;;;;3.50;1.45;;;;;;;;;;5038580;28;20053;-52
2022/01/07 04:26:49;;;;;;;4.30;1.37;;;;;;;;;;5025126;28;20152;-56
2022/01/07 04:29:16;;;;;;;4.53;1.30;;;;;;;;;;5020673;28;20328;-54
2022/01/07 04:31:42;;;;;;;2.55;1.42;;;;;;;;;;5024771;28;20088;-60
2022/01/07 04:34:09;;;;;;;6.93;1.42;;;;;;;;;;5021509;28;20073;-55
2022/01/07 04:36:36;;;;;;;1.48;0.95;;;;;;;;;;5025084;28;20064;-56
2022/01/07 04:39:03;;;;;;;2.13;1.00;;;;;;;;;;5021015;28;20061;-53
2022/01/07 04:41:31;;;;;;;3.38;1.50;;;;;;;;;;5024792;28;20045;-54
2022/01/07 04:43:57;;;;;;;2.77;1.33;;;;;;;;;;5021722;28;20081;-56
2022/01/07 04:46:24;;;;;;;4.70;1.35;;;;;;;;;;5025685;28;20049;-54
2022/01/07 04:48:50;;;;;;;7.85;1.65;;;;;;;;;;5020521;28;20103;-54
2022/01/07 04:51:17;;;;;;;6.53;1.65;;;;;;;;;;5025641;28;20126;-56
2022/01/07 04:53:43;;;;;;;4.25;1.67;;;;;;;;;;5027366;28;20094;-60
2022/01/07 04:56:10;;;;;;;2.75;1.30;;;;;;;;;;5027895;28;20042;-54
2022/01/07 04:58:38;;;;;;;5.70;1.60;;;;;;;;;;5026606;28;20522;-58
2022/01/07 05:01:04;;;;;;;2.22;1.35;;;;;;;;;;5022808;28;20065;-54
2022/01/07 05:03:31;;;;;;;2.58;1.42;;;;;;;;;;5024404;28;20050;-57
2022/01/07 05:06:10;;;;;;;4.85;1.60;;;;;;;;;;5021048;28;20057;-57
2022/01/07 05:08:38;;;;;;;5.80;1.45;;;;;;;;;;5024606;28;20103;-58
2022/01/07 05:11:04;;;;;;;5.05;1.48;;;;;;;;;;5020683;28;20056;-56
2022/01/07 05:13:31;;;;;;;4.38;1.42;;;;;;;;;;5024388;28;20058;-56
2022/01/07 05:15:59;;;;;;;5.32;1.73;;;;;;;;;;5021190;28;20136;-56
2022/01/07 05:18:26;;;;;;;4.07;1.50;;;;;;;;;;5024798;28;20057;-57
2022/01/07 05:20:53;;;;;;;5.13;1.42;;;;;;;;;;5020997;28;20331;-53
2022/01/07 05:23:19;;;;;;;3.88;1.70;;;;;;;;;;5024782;28;20065;-56
2022/01/07 05:25:46;;;;;;;6.38;1.63;;;;;;;;;;5020835;28;20055;-59
2022/01/07 05:28:13;;;;;;;4.65;1.48;;;;;;;;;;5024235;28;20136;-55
2022/01/07 05:30:40;;;;;;;3.50;1.50;;;;;;;;;;5037467;28;20069;-59
2022/01/07 05:33:08;;;;;;;5.00;1.45;;;;;;;;;;5027057;28;20053;-60
2022/01/07 05:35:34;;;;;;;4.00;1.27;;;;;;;;;;5024695;28;20041;-59
2022/01/07 05:38:01;;;;;;;7.20;1.50;;;;;;;;;;5027827;28;20150;-59
2022/01/07 05:40:28;;;;;;;3.03;1.30;;;;;;;;;;5024531;28;20049;-61
2022/01/07 05:42:54;;;;;;;6.20;2.10;;;;;;;;;;5030032;28;20057;-59
2022/01/07 05:45:21;;;;;;;7.15;2.03;;;;;;;;;;5028159;28;20162;-61
2022/01/07 05:47:48;;;;;;;3.53;1.65;;;;;;;;;;5024171;28;20132;-56
2022/01/07 05:50:15;;;;;;;3.00;1.45;;;;;;;;;;5028836;28;20091;-54
2022/01/07 05:52:42;;;;;;;7.03;2.58;;;;;;;;;;5024614;28;20087;-57
2022/01/07 05:55:09;;;;;;;9.32;3.38;;;;;;;;;;5027957;28;20544;-54
2022/01/07 05:57:36;;;;;;;7.72;2.33;;;;;;;;;;5023092;28;20049;-56
2022/01/07 06:00:03;;;;;;;6.18;2.20;;;;;;;;;;5024374;28;20071;-55
2022/01/07 06:02:30;;;;;;;5.75;2.45;;;;;;;;;;5028002;28;20058;-49
2022/01/07 06:04:56;;;;;;;9.50;2.72;;;;;;;;;;5008462;28;20073;-56
2022/01/07 06:07:24;;;;;;;8.27;2.42;;;;;;;;;;5004505;28;20140;-53
2022/01/07 06:09:51;;;;;;;9.03;2.67;;;;;;;;;;5009158;28;20164;-56
2022/01/07 06:12:18;;;;;;;7.07;2.50;;;;;;;;;;5005111;28;20053;-54
2022/01/07 06:14:44;;;;;;;6.45;2.28;;;;;;;;;;5008936;28;20495;-55
2022/01/07 06:17:11;;;;;;;8.10;2.30;;;;;;;;;;5031763;28;20050;-54
2022/01/07 06:19:38;;;;;;;4.57;2.28;;;;;;;;;;5008066;28;20054;-57
2022/01/07 06:22:05;;;;;;;6.90;2.30;;;;;;;;;;5008111;28;20077;-54
2022/01/07 06:24:33;;;;;;;6.45;2.72;;;;;;;;;;5008934;28;20120;-52
2022/01/07 06:26:59;;;;;;;9.35;2.47;;;;;;;;;;5006645;28;20053;-57
2022/01/07 06:29:26;;;;;;;8.13;2.65;;;;;;;;;;5004697;28;20050;-58
2022/01/07 06:31:53;;;;;;;12.75;4.25;;;;;;;;;;5008150;28;20053;-53
2022/01/07 06:34:20;;;;;;;7.97;3.30;;;;;;;;;;5003467;28;20057;-60
2022/01/07 06:36:47;;;;;;;9.10;3.05;;;;;;;;;;5007691;28;20057;-58
2022/01/07 06:39:13;;;;;;;7.93;2.58;;;;;;;;;;5004782;28;20100;-57
2022/01/07 06:41:41;;;;;;;10.20;3.45;;;;;;;;;;5009001;28;20053;-53
2022/01/07 06:44:08;;;;;;;17.90;4.57;;;;;;;;;;5002573;28;20065;-57
2022/01/07 06:46:34;;;;;;;14.55;4.88;;;;;;;;;;5009377;28;20115;-56
2022/01/07 06:49:03;;;;;;;8.77;3.72;;;;;;;;;;5004587;28;20136;-59
2022/01/07 06:51:31;;;;;;;13.13;4.30;;;;;;;;;;5029743;28;20120;-57
2022/01/07 06:53:57;;;;;;;11.97;3.77;;;;;;;;;;5003703;28;20065;-60
2022/01/07 06:56:24;;;;;;;14.32;3.53;;;;;;;;;;5008950;28;20120;-55
2022/01/07 06:58:52;;;;;;;13.65;4.40;;;;;;;;;;5002936;28;20143;-54
2022/01/07 07:01:19;;;;;;;10.65;3.85;;;;;;;;;;5007633;28;20061;-57
2022/01/07 07:03:46;;;;;;;12.25;4.25;;;;;;;;;;5016777;28;20053;-58
2022/01/07 07:06:13;;;;;;;7.38;3.17;;;;;;;;;;5025440;28;20069;-59
2022/01/07 07:08:40;;;;;;;10.00;3.45;;;;;;;;;;5025819;28;20069;-56
2022/01/07 07:11:07;;;;;;;11.80;3.60;;;;;;;;;;5023309;28;20054;-54
2022/01/07 07:13:34;;;;;;;17.25;3.75;;;;;;;;;;5026216;28;20095;-58
2022/01/07 07:16:01;;;;;;;8.50;3.78;;;;;;;;;;5023290;28;20064;-52
2022/01/07 07:18:29;;;;;;;8.57;4.23;;;;;;;;;;5026079;28;20075;-56
2022/01/07 07:20:56;;;;;;;9.50;3.75;;;;;;;;;;5021959;28;20296;-56
2022/01/07 07:23:22;;;;;;;9.77;3.67;;;;;;;;;;5041731;28;20053;-53
2022/01/07 07:25:49;;;;;;;6.50;3.20;;;;;;;;;;5021248;28;20115;-55
2022/01/07 07:28:19;;;;;;;7.85;3.67;;;;;;;;;;5042703;28;20056;-55
2022/01/07 07:30:47;;;;;;;9.07;3.13;;;;;;;;;;5022445;28;20057;-55
2022/01/07 07:33:53;;;;;;;10.03;3.90;;;;;;;;;;5026057;28;20045;-58
2022/01/07 07:36:27;;;;;;;9.80;3.70;;;;;;;;;;5038664;28;20050;-54
2022/01/07 07:38:55;;;;;;;7.18;3.15;;;;;;;;;;5025908;28;20053;-55
2022/01/07 07:41:22;;;;;;;10.57;3.70;;;;;;;;;;5022234;28;20077;-53
2022/01/07 07:43:49;;;;;;;6.80;3.55;;;;;;;;;;5026397;28;20052;-53
2022/01/07 07:46:16;;;;;;;9.33;3.37;;;;;;;;;;5040726;28;20049;-56
2022/01/07 07:48:46;;;;;;;8.45;3.67;;;;;;;;;;5026844;28;20327;-59
2022/01/07 07:51:12;;;;;;;8.43;3.22;;;;;;;;;;5021938;28;20061;-54
2022/01/07 07:53:39;;;;;;;14.15;4.13;;;;;;;;;;5025683;28;20131;-53
2022/01/07 07:56:06;;;;;;;7.57;3.78;;;;;;;;;;5037774;28;20056;-57
2022/01/07 07:58:33;;;;;;;10.10;3.83;;;;;;;;;;5041971;28;20077;-53
2022/01/07 08:01:00;;;;;;;9.65;4.07;;;;;;;;;;5021514;28;20479;-55
2022/01/07 08:03:26;;;;;;;10.07;3.67;;;;;;;;;;5025127;28;20057;-59
2022/01/07 08:05:55;;;;;;;12.30;4.72;;;;;;;;;;5025339;28;20057;-53
2022/01/07 08:08:22;;;;;;;8.40;3.85;;;;;;;;;;5023612;28;20053;-57
2022/01/07 08:10:51;;;;;;;11.13;4.38;;;;;;;;;;5024256;28;20081;-54
2022/01/07 08:16:06;;;;;;;9.82;3.75;;;;;;;;;;5023606;28;20057;-54
2022/01/07 08:18:33;;;;;;;9.35;3.70;;;;;;;;;;5021201;28;20053;-55
2022/01/07 08:21:04;;;;;;;11.02;3.97;;;;;;;;;;5024988;28;20061;-52
2022/01/07 08:23:31;;;;;;;11.35;3.97;;;;;;;;;;5020953;28;20135;-57
2022/01/07 08:25:58;;;;;;;10.20;3.87;;;;;;;;;;5025247;28;20053;-57
2022/01/07 08:28:29;;;;;;;7.88;3.85;;;;;;;;;;5020740;28;20057;-58
2022/01/07 08:31:23;;;;;;;6.63;3.05;;;;;;;;;;5025216;28;20099;-53
2022/01/07 08:36:34;;;;;;;10.68;3.80;;;;;;;;;;5024792;28;20045;-56
2022/01/07 08:39:04;;;;;;;10.32;4.40;;;;;;;;;;5020762;28;20057;-52
2022/01/07 08:41:32;;;;;;;10.98;3.70;;;;;;;;;;5025255;28;20054;-55
2022/01/07 08:43:58;;;;;;;16.73;4.22;;;;;;;;;;5021505;28;20080;-53
2022/01/07 08:46:25;;;;;;;7.20;3.28;;;;;;;;;;5025375;28;20084;-57
2022/01/07 08:48:52;;;;;;;9.27;4.13;;;;;;;;;;5020630;28;20037;-55
2022/01/07 08:51:19;;;;;;;8.43;4.18;;;;;;;;;;5025056;28;20143;-52
2022/01/07 08:53:47;;;;;;;9.63;4.28;;;;;;;;;;5020898;28;20045;-54
2022/01/07 08:56:16;;;;;;;8.25;3.50;;;;;;;;;;5025133;28;20046;-57
2022/01/07 08:58:43;;;;;;;10.85;3.85;;;;;;;;;;5020895;28;20053;-53
2022/01/07 09:01:09;;;;;;;9.30;4.15;;;;;;;;;;5025443;28;20115;-55
2022/01/07 09:03:36;;;;;;;9.60;3.63;;;;;;;;;;5020470;28;20067;-58
2022/01/07 09:06:02;;;;;;;13.45;3.85;;;;;;;;;;5024898;28;20119;-56
2022/01/07 09:08:29;;;;;;;15.68;4.75;;;;;;;;;;5024614;28;20495;-58
2022/01/07 09:10:57;;;;;;;8.43;3.85;;;;;;;;;;5030435;28;20049;-57
2022/01/07 09:13:24;;;;;;;9.90;4.05;;;;;;;;;;5030797;28;20053;-58
2022/01/07 09:15:50;;;;;;;10.02;3.70;;;;;;;;;;5026076;28;20119;-52
2022/01/07 09:18:18;;;;;;;8.85;4.05;;;;;;;;;;5028640;28;20140;-56
2022/01/07 09:20:46;;;;;;;10.90;4.00;;;;;;;;;;5024833;28;20053;-56
2022/01/07 09:23:12;;;;;;;11.48;3.72;;;;;;;;;;5028335;28;20318;-56
2022/01/07 09:25:39;;;;;;;11.30;3.35;;;;;;;;;;5024615;28;20054;-53
2022/01/07 09:28:09;;;;;;;10.02;3.40;;;;;;;;;;5028104;28;20064;-54
2022/01/07 09:30:36;;;;;;;13.57;3.63;;;;;;;;;;5022784;28;20160;-52
2022/01/07 09:33:02;;;;;;;11.23;4.05;;;;;;;;;;5028207;28;20072;-53
2022/01/07 09:35:29;;;;;;;7.65;3.28;;;;;;;;;;5024500;28;20061;-52
2022/01/07 09:37:55;;;;;;;12.75;4.05;;;;;;;;;;5027953;28;20053;-52
2022/01/07 09:40:22;;;;;;;12.88;3.80;;;;;;;;;;5024044;28;20041;-51
2022/01/07 09:42:59;;;;;;;12.32;3.50;;;;;;;;;;5027721;28;20053;-53
2022/01/07 09:45:27;;;;;;;12.95;3.70;;;;;;;;;;5024414;28;20073;-52
2022/01/07 09:47:57;;;;;;;10.70;3.30;;;;;;;;;;5027567;28;20065;-55
2022/01/07 09:50:24;;;;;;;7.28;3.05;;;;;;;;;;5024656;28;20057;-56
2022/01/07 09:52:51;;;;;;;10.25;3.40;;;;;;;;;;5027807;28;20068;-56
2022/01/07 09:55:18;;;;;;;8.63;3.15;;;;;;;;;;5023778;28;20053;-53
2022/01/07 09:57:45;;;;;;;11.52;3.53;;;;;;;;;;5027814;28;20061;-52
2022/01/07 10:00:12;;;;;;;8.82;3.70;;;;;;;;;;5026987;28;20058;-53
2022/01/07 10:02:57;;;;;;;9.57;3.28;;;;;;;;;;5023773;28;20142;-56
2022/01/07 10:05:24;;;;;;;9.80;3.30;;;;;;;;;;5028092;28;20072;-56
2022/01/07 10:07:51;;;;;;;9.57;3.20;;;;;;;;;;5024059;28;20115;-52
2022/01/07 10:10:19;;;;;;;10.98;3.92;;;;;;;;;;5027277;28;20053;-56
2022/01/07 10:12:49;;;;;;;10.07;3.47;;;;;;;;;;5028030;28;20056;-52
2022/01/07 10:15:17;;;;;;;6.07;2.88;;;;;;;;;;5046940;28;20057;-53
2022/01/07 10:17:56;;;;;;;7.57;3.55;;;;;;;;;;5028578;28;20058;-55
2022/01/07 10:20:23;;;;;;;7.10;2.95;;;;;;;;;;5027000;28;20053;-52
2022/01/07 10:22:51;;;;;;;6.57;3.30;;;;;;;;;;5009536;28;20077;-50
2022/01/07 10:25:22;;;;;;;10.77;3.53;;;;;;;;;;5040419;28;20153;-54
2022/01/07 10:27:49;;;;;;;10.93;3.90;;;;;;;;;;5039854;28;20062;-53
2022/01/07 10:30:17;;;;;;;13.10;3.95;;;;;;;;;;5027305;28;20057;-51
2022/01/07 10:32:44;;;;;;;7.97;2.92;;;;;;;;;;5024038;28;20388;-50
2022/01/07 10:35:14;;;;;;;11.75;3.63;;;;;;;;;;5028034;28;20057;-54
2022/01/07 10:37:48;;;;;;;11.05;3.67;;;;;;;;;;5024954;28;20103;-55
2022/01/07 10:40:29;;;;;;;9.63;3.47;;;;;;;;;;5028945;28;20053;-54
2022/01/07 10:42:56;;;;;;;9.15;3.20;;;;;;;;;;5023651;28;20113;-56
2022/01/07 10:45:23;;;;;;;9.85;3.60;;;;;;;;;;5026565;28;20072;-53
2022/01/07 10:47:51;;;;;;;8.50;3.72;;;;;;;;;;5022637;28;20056;-55
2022/01/07 10:50:20;;;;;;;10.35;3.40;;;;;;;;;;5025462;28;20075;-53
2022/01/07 10:52:47;;;;;;;9.50;3.03;;;;;;;;;;5023136;28;20105;-53
2022/01/07 10:55:15;;;;;;;6.82;2.88;;;;;;;;;;5026565;28;20148;-53
2022/01/07 10:57:43;;;;;;;10.13;3.35;;;;;;;;;;5023290;28;20057;-53
2022/01/07 11:00:11;;;;;;;9.13;2.70;;;;;;;;;;5006853;28;20045;-55
2022/01/07 11:02:39;;;;;;;8.82;3.05;;;;;;;;;;5006476;28;20049;-53
2022/01/07 11:05:06;;;;;;;11.83;2.83;;;;;;;;;;5022000;28;20049;-51
2022/01/07 11:07:35;;;;;;;7.75;3.08;;;;;;;;;;5024604;28;20178;-54
2022/01/07 11:10:02;;;;;;;7.18;2.65;;;;;;;;;;5022475;28;20054;-55
2022/01/07 11:12:29;;;;;;;10.88;3.60;;;;;;;;;;5025975;28;20079;-52
2022/01/07 11:14:56;;;;;;;8.48;3.03;;;;;;;;;;5022921;28;20061;-52
2022/01/07 11:17:22;;;;;;;7.15;2.72;;;;;;;;;;5025849;28;20060;-54
2022/01/07 11:19:51;;;;;;;9.77;3.08;;;;;;;;;;5022192;28;20056;-52
2022/01/07 11:22:17;;;;;;;;;;;;;;;;;;5026683;28;20061;-54
2022/01/07 11:24:46;;;;;;;9.25;2.63;;;;;;;;;;5022022;28;19928;-55
2022/01/07 11:27:12;;;;;;;;;;;;;;;;;;5025997;28;20053;-55
2022/01/07 11:29:40;;;;;;;15.00;2.70;;;;;;;;;;5021204;28;19925;-55
2022/01/07 11:32:25;;;;;;;8.77;2.70;;;;;;;;;;5026224;28;20364;-57
2022/01/07 11:34:52;;;;;;;9.77;2.58;;;;;;;;;;5022270;28;20093;-57
2022/01/07 11:37:33;;;;;;;10.55;2.13;;;;;;;;;;5025409;28;20127;-53
2022/01/07 11:40:01;;;;;;;7.25;2.45;;;;;;;;;;5022070;28;20053;-53
2022/01/07 11:42:41;;;;;;;7.82;2.97;;;;;;;;;;5025636;28;20077;-52
2022/01/07 11:45:28;;;;;;;8.07;2.60;;;;;;;;;;5022346;28;20053;-56
2022/01/07 11:47:56;;;;;;;5.85;2.30;;;;;;;;;;5042317;28;20117;-55
2022/01/07 11:50:23;;;;;;;7.40;2.67;;;;;;;;;;5022138;28;20052;-55
2022/01/07 11:52:56;;;;;;;7.45;2.47;;;;;;;;;;5025865;28;20057;-56
2022/01/07 11:55:26;;;;;;;11.32;2.70;;;;;;;;;;5022503;28;20056;-53
2022/01/07 11:57:54;;;;;;;7.95;2.25;;;;;;;;;;5025697;28;20068;-57
2022/01/07 12:00:39;;;;;;;12.10;2.73;;;;;;;;;;5022625;28;20168;-54
2022/01/07 12:03:06;;;;;;;6.93;1.92;;;;;;;;;;5026457;28;20057;-56
2022/01/07 12:05:32;;;;;;;5.75;1.80;;;;;;;;;;5024088;28;20626;-56
2022/01/07 12:07:59;;;;;;;6.45;1.92;;;;;;;;;;5026282;28;20049;-54
2022/01/07 12:10:27;;;;;;;8.50;1.95;;;;;;;;;;5024115;28;20110;-54
2022/01/07 12:12:59;;;;;;;6.78;1.85;;;;;;;;;;5029956;28;20053;-54
2022/01/07 12:15:25;;;;;;;13.93;2.03;;;;;;;;;;5045419;28;20132;-54
2022/01/07 12:17:52;;;;;;;11.98;1.83;;;;;;;;;;5022681;28;20061;-55
2022/01/07 12:20:37;;;;;;;11.27;1.90;;;;;;;;;;5024054;28;20061;-52
2022/01/07 12:23:04;;;;;;;11.23;1.88;;;;;;;;;;5020559;28;20045;-52
2022/01/07 12:25:32;;;;;;;8.48;1.65;;;;;;;;;;5024813;28;20374;-53
2022/01/07 12:28:00;;;;;;;8.85;2.05;;;;;;;;;;5020902;28;20057;-51
2022/01/07 12:30:27;;;;;;;4.90;1.45;;;;;;;;;;5025061;28;20177;-51
2022/01/07 12:32:56;;;;;;;10.88;1.58;;;;;;;;;;5021232;28;20166;-53
2022/01/07 12:35:23;;;;;;;4.90;1.52;;;;;;;;;;5024756;28;20057;-53
2022/01/07 12:37:50;;;;;;;8.32;2.05;;;;;;;;;;5020692;28;20046;-56
2022/01/07 12:40:16;;;;;;;9.98;2.08;;;;;;;;;;5024525;28;20057;-55
2022/01/07 12:42:45;;;;;;;6.85;1.58;;;;;;;;;;5024320;28;20052;-56
2022/01/07 12:45:16;;;;;;;6.00;1.67;;;;;;;;;;5028880;28;20055;-55
2022/01/07 12:47:44;;;;;;;3.42;1.27;;;;;;;;;;5024822;28;20152;-52
2022/01/07 12:50:11;;;;;;;6.10;1.52;;;;;;;;;;5028953;28;20060;-49
2022/01/07 12:52:38;;;;;;;5.30;1.70;;;;;;;;;;5025326;28;20093;-53
2022/01/07 12:55:06;;;;;;;10.07;2.13;;;;;;;;;;5028704;28;20081;-53
2022/01/07 12:57:33;;;;;;;3.37;1.40;;;;;;;;;;5024968;28;20057;-56
2022/01/07 13:00:09;;;;;;;8.85;2.60;;;;;;;;;;5029109;28;20057;-53
2022/01/07 13:02:36;;;;;;;6.05;1.52;;;;;;;;;;5024284;28;20133;-56
2022/01/07 13:05:17;;;;;;;7.82;1.55;;;;;;;;;;5029121;28;20132;-57
2022/01/07 13:07:45;;;;;;;8.77;1.73;;;;;;;;;;5025332;28;20034;-51
2022/01/07 13:10:12;;;;;;;7.88;2.30;;;;;;;;;;5008938;28;20053;-56
2022/01/07 13:12:39;;;;;;;4.75;1.80;;;;;;;;;;5017529;28;20049;-56
2022/01/07 13:15:06;;;;;;;7.72;1.95;;;;;;;;;;5026249;28;20144;-55
2022/01/07 13:17:34;;;;;;;6.10;1.90;;;;;;;;;;5027082;28;20118;-56
2022/01/07 13:20:01;;;;;;;6.38;1.88;;;;;;;;;;5021083;28;20054;-56
2022/01/07 13:22:28;;;;;;;10.43;1.85;;;;;;;;;;5028901;28;20049;-55
2022/01/07 13:24:55;;;;;;;4.40;1.83;;;;;;;;;;5024866;28;20061;-57
2022/01/07 13:27:23;;;;;;;5.50;0.65;;;;;;;;;;5029610;28;20046;-52
2022/01/07 13:29:51;;;;;;;4.38;0.88;;;;;;;;;;5024592;28;20045;-57
2022/01/07 13:32:20;;;;;;;2.53;0.73;;;;;;;;;;5030634;28;20045;-52
2022/01/07 13:34:49;;;;;;;1.77;0.90;;;;;;;;;;5025036;28;20041;-51
2022/01/07 13:37:18;;;;;;;5.97;1.08;;;;;;;;;;5027983;28;20107;-55
2022/01/07 13:39:46;;;;;;;5.95;0.80;;;;;;;;;;5024143;28;20053;-54
2022/01/07 13:42:13;;;;;;;2.75;0.73;;;;;;;;;;5027409;28;20053;-49
2022/01/07 13:44:53;;;;;;;2.47;0.85;;;;;;;;;;5023893;28;20119;-50
2022/01/07 13:47:20;;;;;;;4.60;0.90;;;;;;;;;;5027823;28;20053;-52
2022/01/07 13:49:47;;;;;;;3.90;0.77;;;;;;;;;;5024075;28;20087;-55
2022/01/07 13:52:26;;;;;;;3.70;0.60;;;;;;;;;;5027793;28;20074;-52
2022/01/07 13:54:53;;;;;;;9.43;0.93;;;;;;;;;;5024405;28;20056;-51
2022/01/07 13:57:20;;;;;;;5.43;0.70;;;;;;;;;;5027470;28;20049;-56
2022/01/07 13:59:47;;;;;;;5.40;0.57;;;;;;;;;;5024711;28;20064;-54
2022/01/07 14:02:20;;;;;;;4.65;0.98;;;;;;;;;;5028129;28;20117;-53
2022/01/07 14:04:48;;;;;;;4.57;0.50;;;;;;;;;;5030740;28;20057;-52
2022/01/07 14:07:33;;;;;;;2.20;0.68;;;;;;;;;;5026887;28;20049;-48
2022/01/07 14:10:01;;;;;;;3.88;0.60;;;;;;;;;;5047124;28;20049;-59
2022/01/07 14:12:27;;;;;;;6.63;0.75;;;;;;;;;;5044756;28;20053;-53
2022/01/07 14:15:02;;;;;;;2.05;0.45;;;;;;;;;;5050092;28;20151;-55
2022/01/07 14:17:30;;;;;;;3.67;0.57;;;;;;;;;;5028612;28;20645;-55
2022/01/07 14:19:57;;;;;;;2.42;0.50;;;;;;;;;;5030720;28;20052;-54
2022/01/07 14:22:23;;;;;;;3.03;0.55;;;;;;;;;;5038764;28;20126;-54
2022/01/07 14:24:52;;;;;;;3.90;0.60;;;;;;;;;;5046780;28;20138;-57
2022/01/07 14:27:25;;;;;;;3.65;0.52;;;;;;;;;;5042345;28;20049;-56
2022/01/07 14:29:52;;;;;;;5.28;0.70;;;;;;;;;;5063725;28;20094;-59
2022/01/07 14:32:20;;;;;;;3.92;0.80;;;;;;;;;;5058579;28;20045;-56
2022/01/07 14:34:47;;;;;;;5.18;0.77;;;;;;;;;;5063488;28;20053;-59
2022/01/07 14:37:13;;;;;;;5.60;0.70;;;;;;;;;;5036812;28;20138;-54
2022/01/07 14:39:41;;;;;;;3.42;0.68;;;;;;;;;;5047011;28;20037;-55
2022/01/07 14:42:09;;;;;;;6.88;0.52;;;;;;;;;;5026819;28;20081;-52
2022/01/07 14:44:35;;;;;;;2.00;0.50;;;;;;;;;;5030798;28;20048;-56
2022/01/07 14:47:02;;;;;;;1.17;0.40;;;;;;;;;;5026706;28;20116;-59
2022/01/07 14:49:30;;;;;;;1.17;0.52;;;;;;;;;;5029828;28;20059;-54
2022/01/07 14:51:57;;;;;;;4.30;0.70;;;;;;;;;;5026854;28;20106;-56